Stuart, FL (34994)

10:06 PM EDT on August 03, 2015 (GMT -0400)
Rio | | Change Station
CLOSE
Current Station
Personal Weather Station
Location: Jensen Beach, FL
Elevation: 12 ft
Nearby Weather Stations

Elev 12 ft 27.22 °N, 80.24 °W | Updated 2 seconds ago

Clear
Clear
77.9 °F
Feels Like 80 °F
N
0.0
Wind Variable Wind from ESE
Gusts 2.0 mph

Today
High -- | Low -- °F
--% Chance of Precip.
Yesterday
High -- | Low -- °F
Precip. -- in
6:45 AM 8:08 PM
Waning Gibbous, 82% visible
Pressure 30.02 in
Visibility -9999.0 miles
Clouds Clear
Heat Index 80 °F
Dew Point 74 °F
Humidity 88%
Rainfall 0.00 in
Snow Depth Not available.
UV 0 out of 12
Pollen 4.10 out of 12
Air Quality Not available.
Flu Activity Not available.
METAR KSUA 040135Z AUTO 20003KT CLR 25/22 A3002 RMK AO2 PWINO

More Conditions Fewer Conditions

Pressure 30.02 in
Visibility -9999.0 miles
Clouds Clear
Heat Index 80 °F
Dew Point 74 °F
Humidity 88%
Rainfall 0.00 in
Snow Depth Not available.
UV 0 out of 12
Pollen 4.10 out of 12
Air Quality Not available.
Flu Activity Not available.
METAR KSUA 040135Z AUTO 20003KT CLR 25/22 A3002 RMK AO2 PWINO

More Conditions Fewer Conditions

Nowcast | as of 9:55 PM EDT on August 3, 2015

A large thunderstorm complex over North Florida will drift east to northeast through early morning. The heaviest rainfall is expected to remain over North Florida...but a few storms will produce periods of moderate to heavy rain over North Lake and north Volusia counties...mainly north of State Road 40. Additional details...including graphics are available online at: http://www.Srh.NOAA.Gov/mlb/blog.Php

×

10-Day Weather Forecast

×

Almanac

Astronomy

Aug. 03, 2015 Rise Set
Actual Time
Civil Twilight
Nautical Twilight
Astronomical Twilight
Moon
Length of Visible Light
Length of Day
Tomorrow will be .
, % of the Moon is Illuminated

Today's Extremes

State Highs State Lows

Community

WunderPhotos

Upload Photos

1,843,825 photos uploaded!

WunderBlogs® & News

Nearby

Air Quality

  Air Quality AQ Index Pollutant
Not available.

Snow Depth

Station Depth Elevation

Earthquake Activity

City Distance Mag. Time & Date
Minimum magnitude displayed is 2.5.

Coastal Water Temperatures

Place Temperature

Stations

Nearby Weather Stations

Station Location Temp. Windchill Dew Point Humidity Wind Precip. Elev Updated Type